Terminal Aerodrome Forecast
Issued by NWS

Home | Current Version | Previous Version | Text Only | Print | Product List | Glossary On
Versions: 1 2 3 4 5 6 7 8 9 10 11 12 13 14 15 16 17
000
FTUS42 KMHX 010534
TAFOAJ
TAF
KOAJ 010534Z 0106/0206 22005KT P6SM SCT015
      TEMPO 0106/0108 BKN015
     FM011400 24008KT P6SM SCT250
     FM012000 20008KT P6SM SCT050
      AMD LTD TO CLD VIS AND WIND=

USA.gov is the U.S. government's official web portal to all federal, state and local government web resources and services.